createdAt,value
2023-05-21T00:00:53.902Z,100481.59
2023-05-21T00:03:22.120Z,100482.56
2023-05-21T00:05:50.347Z,100466.75
2023-05-21T00:08:18.304Z,100473.88
2023-05-21T00:10:45.965Z,100466.84
2023-05-21T00:13:13.772Z,100467.06
2023-05-21T00:15:41.719Z,100473.16
2023-05-21T00:18:09.336Z,100454.81
2023-05-21T00:20:37.324Z,100471.38
2023-05-21T00:23:05.370Z,100468.88
2023-05-21T00:25:33.127Z,100460.22
2023-05-21T00:28:01.130Z,100465.41
2023-05-21T00:30:29.046Z,100461.16
2023-05-21T00:32:58.926Z,100458.69
2023-05-21T00:35:26.655Z,100444.66
2023-05-21T00:37:54.510Z,100453.59
2023-05-21T00:40:22.512Z,100454.41
2023-05-21T00:42:50.261Z,100440.38
2023-05-21T00:45:18.115Z,100456.25
2023-05-21T00:47:48.636Z,100457.06
2023-05-21T00:50:16.432Z,100455.41
2023-05-21T00:52:45.874Z,100458.06
2023-05-21T00:55:13.943Z,100458.88
2023-05-21T00:57:42.914Z,100455.41
2023-05-21T01:00:12.138Z,100456.41
2023-05-21T01:02:39.886Z,100462.44
2023-05-21T01:05:08.244Z,100458.16
2023-05-21T01:07:39.119Z,100459.13
2023-05-21T01:10:09.871Z,100457.44
2023-05-21T01:12:41.866Z,100454.09
2023-05-21T01:15:10.940Z,100450.75
2023-05-21T01:17:39.252Z,100448.13
2023-05-21T01:20:10.741Z,100453.41
2023-05-21T01:22:43.717Z,100443.72
2023-05-21T01:25:12.326Z,100438.44
2023-05-21T01:27:39.945Z,100449.75
2023-05-21T01:30:08.587Z,100450.59
2023-05-21T01:32:42.372Z,100464.69
2023-05-21T01:35:29.618Z,100459.75
2023-05-21T01:38:14.708Z,100461.34
2023-05-21T01:40:52.367Z,100463.00
2023-05-21T01:43:22.774Z,100462.06
2023-05-21T01:45:55.035Z,100465.53
2023-05-21T01:48:25.571Z,100456.97
2023-05-21T01:50:55.577Z,100468.97
2023-05-21T01:53:23.892Z,100456.09
2023-05-21T01:55:51.636Z,100452.63
2023-05-21T01:58:19.757Z,100448.31
2023-05-21T02:00:47.775Z,100450.88
2023-05-21T02:03:15.481Z,100453.50
2023-05-21T02:05:43.539Z,100449.25
2023-05-21T02:08:11.388Z,100433.59
2023-05-21T02:10:39.022Z,100430.31
2023-05-21T02:13:06.746Z,100443.56
2023-05-21T02:15:35.152Z,100429.63
2023-05-21T02:18:04.021Z,100438.16
2023-05-21T02:20:51.498Z,100447.84
2023-05-21T02:23:19.092Z,100434.66
2023-05-21T02:25:46.636Z,100424.97
2023-05-21T02:28:14.388Z,100439.94
2023-05-21T02:30:42.088Z,100431.97
2023-05-21T02:33:09.827Z,100426.75
2023-05-21T02:35:37.849Z,100434.66
2023-05-21T02:38:05.585Z,100437.44
2023-05-21T02:40:33.260Z,100448.78
2023-05-21T02:43:01.097Z,100445.47
2023-05-21T02:45:31.516Z,100428.81
2023-05-21T02:47:59.774Z,100441.81
2023-05-21T02:50:28.018Z,100455.72
2023-05-21T02:52:59.911Z,100458.44
2023-05-21T02:55:28.659Z,100461.09
2023-05-21T02:57:56.658Z,100456.13
2023-05-21T03:00:24.271Z,100443.69
2023-05-21T03:02:51.865Z,100455.09
2023-05-21T03:05:19.596Z,100456.88
2023-05-21T03:07:47.163Z,100450.09
2023-05-21T03:10:16.089Z,100455.53
2023-05-21T03:12:43.670Z,100443.56
2023-05-21T03:15:14.958Z,100444.22
2023-05-21T03:17:44.667Z,100446.28
2023-05-21T03:20:19.105Z,100452.44
2023-05-21T03:22:48.350Z,100445.38
2023-05-21T03:25:16.098Z,100454.09
2023-05-21T03:27:44.666Z,100444.50
2023-05-21T03:30:28.372Z,100454.31
2023-05-21T03:33:23.053Z,100462.22
2023-05-21T03:35:50.985Z,100450.03
2023-05-21T03:38:18.631Z,100463.38
2023-05-21T03:40:46.765Z,100463.44
2023-05-21T03:43:14.411Z,100451.13
2023-05-21T03:45:44.338Z,100451.31
2023-05-21T03:48:30.666Z,100461.81
2023-05-21T03:50:59.605Z,100460.09
2023-05-21T03:53:27.217Z,100462.78
2023-05-21T03:55:55.577Z,100456.56
2023-05-21T03:58:25.147Z,100453.34
2023-05-21T04:00:52.806Z,100455.22
2023-05-21T04:03:21.371Z,100445.31
2023-05-21T04:05:49.708Z,100447.03
2023-05-21T04:08:18.103Z,100453.06
2023-05-21T04:10:45.818Z,100459.16
2023-05-21T04:13:13.408Z,100463.44
2023-05-21T04:15:40.942Z,100455.41
2023-05-21T04:18:08.853Z,100448.44
2023-05-21T04:20:36.706Z,100461.53
2023-05-21T04:23:04.836Z,100441.25
2023-05-21T04:25:32.397Z,100463.44
2023-05-21T04:28:00.594Z,100466.97
2023-05-21T04:30:28.238Z,100460.25
2023-05-21T04:32:58.198Z,100449.41
2023-05-21T04:35:27.304Z,100449.47
2023-05-21T04:37:55.110Z,100443.84
2023-05-21T04:40:24.765Z,100459.69
2023-05-21T04:42:52.322Z,100441.47
2023-05-21T04:45:24.752Z,100457.91
2023-05-21T04:47:53.918Z,100466.16
2023-05-21T04:50:21.559Z,100446.97
2023-05-21T04:52:49.394Z,100434.91
2023-05-21T04:55:19.190Z,100463.22
2023-05-21T04:57:48.315Z,100455.44
2023-05-21T05:00:16.684Z,100454.50
2023-05-21T05:02:46.523Z,100460.53
2023-05-21T05:05:14.309Z,100475.28
2023-05-21T05:07:42.714Z,100451.94
2023-05-21T05:10:10.683Z,100449.44
2023-05-21T05:12:38.289Z,100456.47
2023-05-21T05:15:06.727Z,100465.34
2023-05-21T05:17:34.552Z,100468.88
2023-05-21T05:20:02.314Z,100472.22
2023-05-21T05:22:32.550Z,100472.13
2023-05-21T05:25:00.304Z,100473.84
2023-05-21T05:27:28.072Z,100463.19
2023-05-21T05:29:56.369Z,100467.63
2023-05-21T05:32:24.207Z,100476.47
2023-05-21T05:34:52.094Z,100482.44
2023-05-21T05:37:19.753Z,100479.09
2023-05-21T05:39:47.392Z,100478.38
2023-05-21T05:42:15.123Z,100477.56
2023-05-21T05:44:42.787Z,100472.22
2023-05-21T05:47:11.121Z,100480.88
2023-05-21T05:49:40.737Z,100483.38
2023-05-21T05:52:08.504Z,100487.56
2023-05-21T05:54:36.094Z,100489.38
2023-05-21T05:57:03.916Z,100484.31
2023-05-21T05:59:33.874Z,100489.63
2023-05-21T06:02:02.396Z,100496.47
2023-05-21T06:04:30.361Z,100477.34
2023-05-21T06:06:59.995Z,100490.41
2023-05-21T06:09:27.608Z,100480.22
2023-05-21T06:11:55.240Z,100482.38
2023-05-21T06:14:23.501Z,100491.38
2023-05-21T06:16:51.356Z,100489.41
2023-05-21T06:19:19.966Z,100480.44
2023-05-21T06:21:48.287Z,100482.91
2023-05-21T06:24:16.054Z,100478.56
2023-05-21T06:26:43.625Z,100487.09
2023-05-21T06:29:14.264Z,100486.31
2023-05-21T06:31:43.971Z,100487.34
2023-05-21T06:34:12.033Z,100487.09
2023-05-21T06:36:39.732Z,100483.81
2023-05-21T06:39:07.345Z,100469.94
2023-05-21T06:41:36.054Z,100472.59
2023-05-21T06:44:21.122Z,100456.78
2023-05-21T06:47:04.484Z,100474.75
2023-05-21T06:49:32.833Z,100466.91
2023-05-21T06:52:00.530Z,100468.81
2023-05-21T06:54:28.090Z,100466.22
2023-05-21T06:56:56.267Z,100465.06
2023-05-21T06:59:23.893Z,100464.47
2023-05-21T07:01:51.462Z,100473.56
2023-05-21T07:04:19.089Z,100465.06
2023-05-21T07:06:46.919Z,100471.63
2023-05-21T07:09:14.667Z,100467.66
2023-05-21T07:11:43.525Z,100471.66
2023-05-21T07:14:11.792Z,100478.47
2023-05-21T07:16:39.771Z,100462.91
2023-05-21T07:19:08.385Z,100471.13
2023-05-21T07:21:36.195Z,100467.03
2023-05-21T07:24:40.548Z,100477.09
2023-05-21T07:27:17.736Z,100470.97
2023-05-21T07:29:52.935Z,100465.28
2023-05-21T07:32:22.306Z,100476.28
2023-05-21T07:34:50.831Z,100471.94
2023-05-21T07:37:20.824Z,100462.59
2023-05-21T07:39:48.485Z,100475.13
2023-05-21T07:42:16.362Z,100471.94
2023-05-21T07:44:44.348Z,100478.34
2023-05-21T07:47:12.030Z,100470.81
2023-05-21T07:49:39.850Z,100475.06
2023-05-21T07:52:08.427Z,100466.31
2023-05-21T07:54:36.209Z,100465.78
2023-05-21T07:57:04.152Z,100461.75
2023-05-21T07:59:56.978Z,100453.31
2023-05-21T08:02:25.172Z,100459.84
2023-05-21T08:04:55.247Z,100454.00
2023-05-21T08:07:23.161Z,100463.31
2023-05-21T08:09:51.794Z,100460.28
2023-05-21T08:12:19.881Z,100460.38
2023-05-21T08:14:47.734Z,100453.94
2023-05-21T08:17:16.964Z,100468.06
2023-05-21T08:19:44.928Z,100461.75
2023-05-21T08:22:12.854Z,100460.44
2023-05-21T08:24:45.237Z,100446.44
2023-05-21T08:27:15.313Z,100459.44
2023-05-21T08:29:43.771Z,100464.41
2023-05-21T08:32:11.809Z,100459.44
2023-05-21T08:34:39.467Z,100459.53
2023-05-21T08:37:18.892Z,100450.81
2023-05-21T08:40:15.169Z,100443.81
2023-05-21T08:42:46.991Z,100467.81
2023-05-21T08:45:23.754Z,100461.28
2023-05-21T08:47:58.727Z,100461.91
2023-05-21T08:50:31.775Z,100458.44
2023-05-21T08:53:07.486Z,100454.88
2023-05-21T08:55:43.932Z,100454.97
2023-05-21T08:58:13.784Z,100457.78
2023-05-21T09:00:42.825Z,100453.47
2023-05-21T09:03:13.996Z,100441.22
2023-05-21T09:05:44.866Z,100469.94
2023-05-21T09:08:27.778Z,100457.81
2023-05-21T09:11:03.530Z,100453.44
2023-05-21T09:13:47.560Z,100462.16
2023-05-21T09:16:22.944Z,100459.31
2023-05-21T09:18:51.264Z,100470.31
2023-05-21T09:21:31.951Z,100454.16
2023-05-21T09:24:14.365Z,100467.50
2023-05-21T09:26:44.077Z,100466.25
2023-05-21T09:29:13.577Z,100473.75
2023-05-21T09:31:45.417Z,100462.34
2023-05-21T09:34:14.739Z,100466.97
2023-05-21T09:36:44.214Z,100474.03
2023-05-21T09:39:16.678Z,100457.25
2023-05-21T09:41:45.434Z,100465.53
2023-05-21T09:44:13.664Z,100471.97
2023-05-21T09:46:42.253Z,100480.13
2023-05-21T09:49:31.348Z,100472.00
2023-05-21T09:52:00.932Z,100466.16
2023-05-21T09:54:33.990Z,100469.56
2023-05-21T09:57:04.913Z,100471.06
2023-05-21T09:59:37.115Z,100476.13
2023-05-21T10:02:24.093Z,100468.19
2023-05-21T10:04:54.486Z,100481.59
2023-05-21T10:07:26.248Z,100481.41
2023-05-21T10:09:58.186Z,100482.94
2023-05-21T10:12:30.520Z,100490.50
2023-05-21T10:15:04.098Z,100489.44
2023-05-21T10:17:36.636Z,100469.38
2023-05-21T10:20:06.110Z,100494.09
2023-05-21T10:22:35.095Z,100486.84
2023-05-21T10:25:03.979Z,100472.28
2023-05-21T10:27:34.571Z,100462.03
2023-05-21T10:30:04.068Z,100460.97
2023-05-21T10:32:34.157Z,100464.41
2023-05-21T10:35:02.913Z,100456.03
2023-05-21T10:37:33.400Z,100466.72
2023-05-21T10:40:01.565Z,100463.72
2023-05-21T10:42:31.682Z,100457.03
2023-05-21T10:45:02.233Z,100460.88
2023-05-21T10:47:35.029Z,100459.19
2023-05-21T10:50:29.968Z,100461.88
2023-05-21T10:53:29.100Z,100455.75
2023-05-21T10:56:23.122Z,100458.34
2023-05-21T10:59:09.161Z,100443.03
2023-05-21T11:01:38.694Z,100460.91
2023-05-21T11:04:06.837Z,100458.25
2023-05-21T11:06:34.618Z,100442.09
2023-05-21T11:09:12.384Z,100454.97
2023-05-21T11:11:48.738Z,100465.91
2023-05-21T11:14:36.810Z,100463.34
2023-05-21T11:17:11.601Z,100463.31
2023-05-21T11:19:41.536Z,100456.13
2023-05-21T11:22:21.723Z,100455.47
2023-05-21T11:24:52.785Z,100466.13
2023-05-21T11:27:36.450Z,100467.03
2023-05-21T11:30:14.671Z,100470.03
2023-05-21T11:33:16.504Z,100470.63
2023-05-21T11:35:50.191Z,100463.09
2023-05-21T11:38:18.283Z,100454.72
2023-05-21T11:40:55.683Z,100459.72
2023-05-21T11:43:23.665Z,100458.81
2023-05-21T11:45:53.383Z,100450.03
2023-05-21T11:48:27.300Z,100451.28
2023-05-21T11:50:55.745Z,100452.63
2023-05-21T11:53:23.439Z,100461.97
2023-05-21T11:55:57.448Z,100462.84
2023-05-21T11:58:25.860Z,100450.44
2023-05-21T12:00:53.504Z,100454.13
2023-05-21T12:03:27.005Z,100465.56
2023-05-21T12:05:55.343Z,100466.53
2023-05-21T12:08:27.246Z,100468.09
2023-05-21T12:11:03.900Z,100480.72
2023-05-21T12:13:32.263Z,100477.94
2023-05-21T12:16:00.089Z,100478.00
2023-05-21T12:18:28.108Z,100488.03
2023-05-21T12:20:56.005Z,100483.34
2023-05-21T12:23:26.574Z,100495.88
2023-05-21T12:25:54.429Z,100487.72
2023-05-21T12:28:22.871Z,100483.78
2023-05-21T12:30:51.187Z,100494.84
2023-05-21T12:33:19.118Z,100489.59
2023-05-21T12:35:50.348Z,100494.06
2023-05-21T12:38:18.446Z,100491.38
2023-05-21T12:40:46.120Z,100496.59
2023-05-21T12:43:13.955Z,100479.09
2023-05-21T12:45:46.830Z,100495.81
2023-05-21T12:48:17.626Z,100500.16
2023-05-21T12:50:46.378Z,100487.97
2023-05-21T12:53:15.526Z,100501.03
2023-05-21T12:55:44.097Z,100499.47
2023-05-21T12:58:14.306Z,100483.03
2023-05-21T13:00:43.493Z,100489.41
2023-05-21T13:03:11.450Z,100480.78
2023-05-21T13:05:41.786Z,100478.47
2023-05-21T13:08:10.793Z,100485.56
2023-05-21T13:10:39.264Z,100483.84
2023-05-21T13:13:07.093Z,100482.06
2023-05-21T13:15:34.760Z,100470.56
2023-05-21T13:18:02.951Z,100479.34
2023-05-21T13:20:30.686Z,100488.28
2023-05-21T13:22:58.574Z,100475.50
2023-05-21T13:25:30.199Z,100478.31
2023-05-21T13:28:01.758Z,100473.31
2023-05-21T13:30:29.827Z,100483.03
2023-05-21T13:32:57.496Z,100476.84
2023-05-21T13:35:25.412Z,100487.00
2023-05-21T13:37:53.124Z,100489.13
2023-05-21T13:40:22.472Z,100471.22
2023-05-21T13:42:50.578Z,100485.78
2023-05-21T13:45:19.643Z,100485.50
2023-05-21T13:47:48.415Z,100477.63
2023-05-21T13:50:16.816Z,100478.50
2023-05-21T13:52:44.731Z,100486.59
2023-05-21T13:55:12.821Z,100482.31
2023-05-21T13:57:40.839Z,100482.47
2023-05-21T14:00:10.691Z,100474.53
2023-05-21T14:02:38.553Z,100481.59
2023-05-21T14:05:07.545Z,100471.94
2023-05-21T14:07:35.160Z,100478.16
2023-05-21T14:10:03.101Z,100476.47
2023-05-21T14:12:33.566Z,100479.16
2023-05-21T14:15:01.678Z,100477.53
2023-05-21T14:17:33.658Z,100476.56
2023-05-21T14:20:01.352Z,100476.53
2023-05-21T14:22:33.021Z,100469.44
2023-05-21T14:25:01.113Z,100471.91
2023-05-21T14:27:29.090Z,100455.13
2023-05-21T14:29:56.767Z,100467.94
2023-05-21T14:32:24.569Z,100467.59
2023-05-21T14:34:52.559Z,100457.00
2023-05-21T14:37:20.456Z,100459.66
2023-05-21T14:39:48.460Z,100458.88
2023-05-21T14:42:16.227Z,100468.72
2023-05-21T14:44:43.993Z,100476.75
2023-05-21T14:47:11.734Z,100468.19
2023-05-21T14:49:39.440Z,100458.81
2023-05-21T14:52:07.335Z,100459.06
2023-05-21T14:54:35.104Z,100463.66
2023-05-21T14:57:03.024Z,100469.94
2023-05-21T14:59:30.751Z,100454.16
2023-05-21T15:01:58.710Z,100466.25
2023-05-21T15:04:27.063Z,100465.16
2023-05-21T15:06:54.950Z,100456.19
2023-05-21T15:09:22.598Z,100451.72
2023-05-21T15:11:52.751Z,100458.41
2023-05-21T15:14:21.103Z,100467.78
2023-05-21T15:16:49.114Z,100454.53
2023-05-21T15:19:16.932Z,100470.81
2023-05-21T15:21:44.855Z,100458.31
2023-05-21T15:24:12.620Z,100470.38
2023-05-21T15:26:40.394Z,100467.66
2023-05-21T15:29:08.080Z,100458.03
2023-05-21T15:31:36.121Z,100470.16
2023-05-21T15:34:04.152Z,100467.53
2023-05-21T15:36:31.995Z,100472.66
2023-05-21T15:39:03.671Z,100462.16
2023-05-21T15:41:36.460Z,100469.25
2023-05-21T15:44:04.764Z,100475.44
2023-05-21T15:46:32.424Z,100457.19
2023-05-21T15:49:00.230Z,100470.22
2023-05-21T15:51:28.126Z,100472.81
2023-05-21T15:53:56.093Z,100473.59
2023-05-21T15:56:23.776Z,100468.41
2023-05-21T15:58:51.558Z,100462.19
2023-05-21T16:01:19.263Z,100470.81
2023-05-21T16:03:47.217Z,100460.25
2023-05-21T16:06:14.900Z,100462.00
2023-05-21T16:08:42.942Z,100476.72
2023-05-21T16:11:10.688Z,100479.97
2023-05-21T16:13:38.832Z,100482.47
2023-05-21T16:16:08.789Z,100479.84
2023-05-21T16:18:37.833Z,100484.97
2023-05-21T16:21:05.974Z,100478.81
2023-05-21T16:23:34.346Z,100486.63
2023-05-21T16:26:01.989Z,100487.47
2023-05-21T16:28:30.375Z,100493.53
2023-05-21T16:30:57.989Z,100477.75
2023-05-21T16:33:25.931Z,100475.16
2023-05-21T16:35:54.532Z,100489.19
2023-05-21T16:38:22.911Z,100475.94
2023-05-21T16:40:50.636Z,100471.53
2023-05-21T16:43:18.272Z,100476.72
2023-05-21T16:45:46.894Z,100480.94
2023-05-21T16:48:15.245Z,100489.50
2023-05-21T16:50:43.277Z,100469.25
2023-05-21T16:53:12.184Z,100477.00
2023-05-21T16:55:40.427Z,100488.13
2023-05-21T16:58:09.459Z,100479.16
2023-05-21T17:00:37.775Z,100485.16
2023-05-21T17:03:05.790Z,100468.38
2023-05-21T17:05:33.665Z,100477.06
2023-05-21T17:08:01.402Z,100485.59
2023-05-21T17:10:30.156Z,100477.63
2023-05-21T17:12:59.880Z,100483.66
2023-05-21T17:15:29.656Z,100486.09
2023-05-21T17:17:57.592Z,100475.41
2023-05-21T17:20:25.913Z,100490.22
2023-05-21T17:22:53.675Z,100478.69
2023-05-21T17:25:21.578Z,100493.56
2023-05-21T17:27:49.405Z,100494.22
2023-05-21T17:30:17.260Z,100494.09
2023-05-21T17:32:44.933Z,100497.44
2023-05-21T17:35:12.704Z,100498.22
2023-05-21T17:37:41.049Z,100501.50
2023-05-21T17:40:09.661Z,100503.97
2023-05-21T17:42:37.433Z,100504.72
2023-05-21T17:45:05.738Z,100504.66
2023-05-21T17:47:34.692Z,100502.81
2023-05-21T17:50:02.647Z,100484.22
2023-05-21T17:52:31.781Z,100503.47
2023-05-21T17:54:59.517Z,100512.06
2023-05-21T17:57:27.465Z,100509.28
2023-05-21T17:59:55.621Z,100502.28
2023-05-21T18:02:23.659Z,100500.53
2023-05-21T18:04:51.243Z,100482.84
2023-05-21T18:07:18.890Z,100504.75
2023-05-21T18:09:46.472Z,100515.06
2023-05-21T18:12:14.147Z,100501.94
2023-05-21T18:14:41.742Z,100502.69
2023-05-21T18:17:09.595Z,100504.44
2023-05-21T18:19:37.366Z,100510.44
2023-05-21T18:22:05.350Z,100507.81
2023-05-21T18:24:33.220Z,100511.19
2023-05-21T18:27:00.943Z,100506.81
2023-05-21T18:29:28.588Z,100507.63
2023-05-21T18:31:56.598Z,100497.00
2023-05-21T18:34:24.531Z,100495.31
2023-05-21T18:36:54.616Z,100494.28
2023-05-21T18:39:24.921Z,100510.00
2023-05-21T18:42:01.662Z,100507.28
2023-05-21T18:44:39.702Z,100493.28
2023-05-21T18:47:07.861Z,100492.38
2023-05-21T18:49:36.455Z,100503.72
2023-05-21T18:52:05.233Z,100503.59
2023-05-21T18:54:32.959Z,100486.13
2023-05-21T18:57:01.217Z,100498.34
2023-05-21T18:59:29.179Z,100490.44
2023-05-21T19:01:56.836Z,100500.00
2023-05-21T19:04:24.570Z,100508.56
2023-05-21T19:06:52.291Z,100495.31
2023-05-21T19:09:19.852Z,100510.13
2023-05-21T19:11:47.563Z,100512.63
2023-05-21T19:14:15.257Z,100499.47
2023-05-21T19:16:43.194Z,100495.84
2023-05-21T19:19:11.264Z,100508.06
2023-05-21T19:21:39.317Z,100509.56
2023-05-21T19:24:07.302Z,100508.69
2023-05-21T19:26:35.151Z,100506.06
2023-05-21T19:29:02.784Z,100504.28
2023-05-21T19:31:30.662Z,100505.97
2023-05-21T19:33:58.315Z,100507.72
2023-05-21T19:36:26.876Z,100510.28
2023-05-21T19:38:58.900Z,100508.44
2023-05-21T19:41:26.590Z,100511.88
2023-05-21T19:43:54.194Z,100505.75
2023-05-21T19:46:22.103Z,100507.41
2023-05-21T19:48:51.055Z,100511.75
2023-05-21T19:51:18.979Z,100496.69
2023-05-21T19:53:46.641Z,100515.03
2023-05-21T19:56:14.506Z,100510.66
2023-05-21T19:58:46.956Z,100514.97
2023-05-21T20:01:18.989Z,100508.88
2023-05-21T20:03:46.761Z,100504.53
2023-05-21T20:06:16.295Z,100505.19
2023-05-21T20:08:44.096Z,100504.19
2023-05-21T20:11:11.745Z,100509.25
2023-05-21T20:13:40.816Z,100498.53
2023-05-21T20:16:08.513Z,100494.19
2023-05-21T20:18:36.262Z,100507.22
2023-05-21T20:21:06.379Z,100506.16
2023-05-21T20:23:34.287Z,100506.34
2023-05-21T20:26:01.970Z,100508.03
2023-05-21T20:28:29.727Z,100505.34
2023-05-21T20:31:00.867Z,100500.94
2023-05-21T20:33:31.457Z,100505.06
2023-05-21T20:36:00.213Z,100511.94
2023-05-21T20:38:28.060Z,100511.88
2023-05-21T20:40:55.821Z,100496.91
2023-05-21T20:43:24.630Z,100514.38
2023-05-21T20:46:01.389Z,100522.03
2023-05-21T20:48:29.920Z,100516.81
2023-05-21T20:50:58.549Z,100518.31
2023-05-21T20:53:26.866Z,100527.88
2023-05-21T20:55:54.894Z,100530.44
2023-05-21T20:58:24.119Z,100528.69
2023-05-21T21:00:51.955Z,100525.31
2023-05-21T21:03:21.826Z,100529.69
2023-05-21T21:05:49.834Z,100529.84
2023-05-21T21:08:17.656Z,100519.28
2023-05-21T21:10:47.104Z,100528.19
2023-05-21T21:13:15.547Z,100512.53
2023-05-21T21:15:44.116Z,100523.13
2023-05-21T21:18:14.648Z,100524.84
2023-05-21T21:20:42.902Z,100509.78
2023-05-21T21:23:10.720Z,100530.84
2023-05-21T21:25:38.534Z,100533.44
2023-05-21T21:28:07.324Z,100528.13
2023-05-21T21:30:35.124Z,100530.63
2023-05-21T21:33:03.011Z,100527.81
2023-05-21T21:35:30.858Z,100537.09
2023-05-21T21:37:59.086Z,100513.50
2023-05-21T21:40:27.522Z,100521.50
2023-05-21T21:42:56.802Z,100513.53
2023-05-21T21:45:24.496Z,100519.84
2023-05-21T21:47:52.119Z,100524.97
2023-05-21T21:50:19.796Z,100525.84
2023-05-21T21:52:49.032Z,100526.63
2023-05-21T21:55:17.580Z,100521.47
2023-05-21T21:57:45.292Z,100513.81
2023-05-21T22:00:17.238Z,100498.09
2023-05-21T22:02:48.556Z,100506.09
2023-05-21T22:05:16.348Z,100506.19
2023-05-21T22:07:47.292Z,100504.34
2023-05-21T22:10:16.401Z,100506.84
2023-05-21T22:12:44.988Z,100509.47
2023-05-21T22:15:19.360Z,100512.06
2023-05-21T22:17:48.736Z,100502.28
2023-05-21T22:20:17.850Z,100506.66
2023-05-21T22:22:46.919Z,100503.13
2023-05-21T22:25:14.729Z,100501.41
2023-05-21T22:27:43.341Z,100495.97
2023-05-21T22:30:11.671Z,100501.34
2023-05-21T22:32:39.691Z,100502.97
2023-05-21T22:35:08.549Z,100506.34
2023-05-21T22:37:37.507Z,100500.13
2023-05-21T22:40:09.369Z,100506.25
2023-05-21T22:42:37.408Z,100503.66
2023-05-21T22:45:05.965Z,100485.25
2023-05-21T22:47:37.281Z,100493.25
2023-05-21T22:50:07.340Z,100497.53
2023-05-21T22:52:35.320Z,100501.84
2023-05-21T22:55:03.589Z,100494.81
2023-05-21T22:57:31.466Z,100495.75
2023-05-21T22:59:59.229Z,100478.94
2023-05-21T23:02:27.006Z,100484.03
2023-05-21T23:04:54.705Z,100481.31
2023-05-21T23:07:22.444Z,100494.22
2023-05-21T23:09:51.916Z,100496.66
2023-05-21T23:12:19.922Z,100483.22
2023-05-21T23:14:49.698Z,100492.00
2023-05-21T23:17:17.477Z,100486.69
2023-05-21T23:19:45.148Z,100491.72
2023-05-21T23:22:12.865Z,100488.28
2023-05-21T23:24:40.609Z,100468.19
2023-05-21T23:27:08.398Z,100484.81
2023-05-21T23:29:36.263Z,100492.66
2023-05-21T23:32:05.253Z,100486.84
2023-05-21T23:34:33.177Z,100486.94
2023-05-21T23:37:00.974Z,100487.91
2023-05-21T23:39:28.951Z,100489.53
2023-05-21T23:41:57.028Z,100486.13
2023-05-21T23:44:24.929Z,100495.66
2023-05-21T23:46:52.637Z,100495.69
2023-05-21T23:49:20.440Z,100492.22
2023-05-21T23:51:50.826Z,100501.00
2023-05-21T23:54:18.784Z,100487.28
2023-05-21T23:56:46.819Z,100487.41
2023-05-21T23:59:16.284Z,100485.66
